sensor_id;sensor_type;location;lat;lon;timestamp;pressure;altitude;pressure_sealevel;temperature;humidity
50310;BME280;36207;51.850;21.698;2023-02-16T00:00:19;100859.42;;;0.64;82.37
50310;BME280;36207;51.850;21.698;2023-02-16T00:03:07;100856.76;;;0.61;81.96
50310;BME280;36207;51.850;21.698;2023-02-16T00:05:34;100851.79;;;0.57;81.86
50310;BME280;36207;51.850;21.698;2023-02-16T00:08:00;100852.72;;;0.53;81.73
50310;BME280;36207;51.850;21.698;2023-02-16T00:10:30;100846.92;;;0.48;81.53
50310;BME280;36207;51.850;21.698;2023-02-16T00:12:57;100845.02;;;0.42;81.46
50310;BME280;36207;51.850;21.698;2023-02-16T00:15:42;100833.95;;;0.36;81.55
50310;BME280;36207;51.850;21.698;2023-02-16T00:18:19;100833.86;;;0.32;81.55
50310;BME280;36207;51.850;21.698;2023-02-16T00:20:48;100839.58;;;0.27;81.57
50310;BME280;36207;51.850;21.698;2023-02-16T00:23:14;100840.78;;;0.22;81.64
50310;BME280;36207;51.850;21.698;2023-02-16T00:25:40;100836.95;;;0.18;81.55
50310;BME280;36207;51.850;21.698;2023-02-16T00:28:13;100831.68;;;0.16;81.44
50310;BME280;36207;51.850;21.698;2023-02-16T00:30:40;100823.50;;;0.12;81.61
50310;BME280;36207;51.850;21.698;2023-02-16T00:33:18;100819.55;;;0.11;81.56
50310;BME280;36207;51.850;21.698;2023-02-16T00:35:44;100818.07;;;0.09;81.69
50310;BME280;36207;51.850;21.698;2023-02-16T00:38:11;100814.88;;;0.10;82.00
50310;BME280;36207;51.850;21.698;2023-02-16T00:40:39;100815.79;;;0.12;82.02
50310;BME280;36207;51.850;21.698;2023-02-16T00:43:06;100811.84;;;0.11;81.87
50310;BME280;36207;51.850;21.698;2023-02-16T00:45:36;100810.85;;;0.13;81.88
50310;BME280;36207;51.850;21.698;2023-02-16T00:48:02;100805.94;;;0.16;81.78
50310;BME280;36207;51.850;21.698;2023-02-16T00:50:32;100799.56;;;0.17;81.58
50310;BME280;36207;51.850;21.698;2023-02-16T00:52:59;100799.55;;;0.17;81.69
50310;BME280;36207;51.850;21.698;2023-02-16T00:55:30;100792.40;;;0.20;81.63
50310;BME280;36207;51.850;21.698;2023-02-16T00:58:05;100785.14;;;0.18;81.20
50310;BME280;36207;51.850;21.698;2023-02-16T01:00:38;100776.23;;;0.12;81.76
50310;BME280;36207;51.850;21.698;2023-02-16T01:03:12;100775.63;;;0.11;81.69
50310;BME280;36207;51.850;21.698;2023-02-16T01:05:38;100775.75;;;0.09;81.54
50310;BME280;36207;51.850;21.698;2023-02-16T01:08:15;100775.86;;;0.10;81.74
50310;BME280;36207;51.850;21.698;2023-02-16T01:11:03;100769.20;;;0.13;81.77
50310;BME280;36207;51.850;21.698;2023-02-16T01:13:41;100766.96;;;0.12;81.71
50310;BME280;36207;51.850;21.698;2023-02-16T01:16:17;100762.64;;;0.09;81.79
50310;BME280;36207;51.850;21.698;2023-02-16T01:18:44;100753.02;;;0.06;81.77
50310;BME280;36207;51.850;21.698;2023-02-16T01:21:10;100750.17;;;0.03;82.03
50310;BME280;36207;51.850;21.698;2023-02-16T01:23:37;100743.92;;;0.08;82.42
50310;BME280;36207;51.850;21.698;2023-02-16T01:26:05;100739.55;;;0.13;82.61
50310;BME280;36207;51.850;21.698;2023-02-16T01:28:33;100733.66;;;0.15;82.59
50310;BME280;36207;51.850;21.698;2023-02-16T01:31:00;100730.81;;;0.16;82.73
50310;BME280;36207;51.850;21.698;2023-02-16T01:33:26;100728.35;;;0.19;82.67
50310;BME280;36207;51.850;21.698;2023-02-16T01:35:54;100726.34;;;0.23;82.63
50310;BME280;36207;51.850;21.698;2023-02-16T01:38:24;100721.08;;;0.29;82.47
50310;BME280;36207;51.850;21.698;2023-02-16T01:43:45;100712.95;;;0.30;82.34
50310;BME280;36207;51.850;21.698;2023-02-16T01:46:17;100705.17;;;0.32;82.21
50310;BME280;36207;51.850;21.698;2023-02-16T01:48:49;100700.77;;;0.29;82.05
50310;BME280;36207;51.850;21.698;2023-02-16T01:51:23;100699.48;;;0.24;81.94
50310;BME280;36207;51.850;21.698;2023-02-16T01:53:59;100698.34;;;0.20;81.98
50310;BME280;36207;51.850;21.698;2023-02-16T01:56:53;100700.13;;;0.22;82.21
50310;BME280;36207;51.850;21.698;2023-02-16T02:02:00;100694.39;;;0.27;82.09
50310;BME280;36207;51.850;21.698;2023-02-16T02:15:55;100694.25;;;0.16;81.75
50310;BME280;36207;51.850;21.698;2023-02-16T02:18:23;100693.18;;;0.13;81.87
50310;BME280;36207;51.850;21.698;2023-02-16T02:38:16;100681.59;;;-0.06;81.98
50310;BME280;36207;51.850;21.698;2023-02-16T02:41:01;100677.86;;;-0.05;81.84
50310;BME280;36207;51.850;21.698;2023-02-16T02:43:42;100682.86;;;-0.04;82.07
50310;BME280;36207;51.850;21.698;2023-02-16T02:46:24;100678.77;;;-0.06;81.98
50310;BME280;36207;51.850;21.698;2023-02-16T02:48:52;100673.95;;;-0.07;81.90
50310;BME280;36207;51.850;21.698;2023-02-16T02:51:18;100668.17;;;-0.10;81.67
50310;BME280;36207;51.850;21.698;2023-02-16T02:54:12;100670.84;;;-0.13;81.68
50310;BME280;36207;51.850;21.698;2023-02-16T02:57:22;100674.32;;;-0.16;81.70
50310;BME280;36207;51.850;21.698;2023-02-16T03:00:13;100672.35;;;-0.15;81.92
50310;BME280;36207;51.850;21.698;2023-02-16T03:03:25;100672.76;;;-0.16;81.77
50310;BME280;36207;51.850;21.698;2023-02-16T03:06:10;100671.17;;;-0.19;81.68
50310;BME280;36207;51.850;21.698;2023-02-16T03:08:40;100665.39;;;-0.22;81.74
50310;BME280;36207;51.850;21.698;2023-02-16T03:11:18;100661.88;;;-0.24;81.82
50310;BME280;36207;51.850;21.698;2023-02-16T03:14:08;100658.39;;;-0.24;81.89
50310;BME280;36207;51.850;21.698;2023-02-16T03:16:41;100656.21;;;-0.23;82.04
50310;BME280;36207;51.850;21.698;2023-02-16T03:19:11;100654.04;;;-0.22;82.01
50310;BME280;36207;51.850;21.698;2023-02-16T03:21:57;100653.52;;;-0.22;82.14
50310;BME280;36207;51.850;21.698;2023-02-16T03:24:43;100652.84;;;-0.20;81.95
50310;BME280;36207;51.850;21.698;2023-02-16T03:27:38;100657.77;;;-0.23;81.71
50310;BME280;36207;51.850;21.698;2023-02-16T03:30:24;100654.52;;;-0.30;81.28
50310;BME280;36207;51.850;21.698;2023-02-16T03:32:52;100648.54;;;-0.38;81.20
50310;BME280;36207;51.850;21.698;2023-02-16T03:35:19;100648.35;;;-0.43;81.30
50310;BME280;36207;51.850;21.698;2023-02-16T03:37:45;100648.38;;;-0.47;81.37
50310;BME280;36207;51.850;21.698;2023-02-16T03:40:13;100649.40;;;-0.47;81.44
50310;BME280;36207;51.850;21.698;2023-02-16T03:42:55;100644.80;;;-0.48;81.16
50310;BME280;36207;51.850;21.698;2023-02-16T03:45:23;100644.88;;;-0.50;81.30
50310;BME280;36207;51.850;21.698;2023-02-16T03:47:49;100639.15;;;-0.53;81.32
50310;BME280;36207;51.850;21.698;2023-02-16T03:50:15;100635.21;;;-0.57;81.27
50310;BME280;36207;51.850;21.698;2023-02-16T03:52:41;100631.94;;;-0.61;81.13
50310;BME280;36207;51.850;21.698;2023-02-16T03:55:08;100627.18;;;-0.63;81.35
50310;BME280;36207;51.850;21.698;2023-02-16T03:57:34;100621.00;;;-0.62;81.66
50310;BME280;36207;51.850;21.698;2023-02-16T04:00:00;100621.04;;;-0.60;81.67
50310;BME280;36207;51.850;21.698;2023-02-16T04:02:27;100614.68;;;-0.59;81.81
50310;BME280;36207;51.850;21.698;2023-02-16T04:04:53;100609.62;;;-0.57;82.16
50310;BME280;36207;51.850;21.698;2023-02-16T04:07:19;100610.27;;;-0.53;82.05
50310;BME280;36207;51.850;21.698;2023-02-16T04:09:46;100607.20;;;-0.45;82.12
50310;BME280;36207;51.850;21.698;2023-02-16T04:12:12;100603.78;;;-0.38;82.09
50310;BME280;36207;51.850;21.698;2023-02-16T04:14:57;100598.73;;;-0.33;82.25
50310;BME280;36207;51.850;21.698;2023-02-16T04:17:23;100597.64;;;-0.32;82.12
50310;BME280;36207;51.850;21.698;2023-02-16T04:19:49;100600.14;;;-0.33;82.16
50310;BME280;36207;51.850;21.698;2023-02-16T04:22:15;100596.88;;;-0.31;82.02
50310;BME280;36207;51.850;21.698;2023-02-16T04:24:41;100595.76;;;-0.33;81.98
50310;BME280;36207;51.850;21.698;2023-02-16T04:27:07;100590.22;;;-0.28;82.27
50310;BME280;36207;51.850;21.698;2023-02-16T04:29:33;100583.04;;;-0.23;82.36
50310;BME280;36207;51.850;21.698;2023-02-16T04:31:59;100574.80;;;-0.28;82.46
50310;BME280;36207;51.850;21.698;2023-02-16T04:34:25;100572.48;;;-0.30;82.47
50310;BME280;36207;51.850;21.698;2023-02-16T04:36:51;100566.70;;;-0.30;82.66
50310;BME280;36207;51.850;21.698;2023-02-16T04:39:17;100564.52;;;-0.29;82.64
50310;BME280;36207;51.850;21.698;2023-02-16T04:41:43;100560.85;;;-0.26;82.61
50310;BME280;36207;51.850;21.698;2023-02-16T04:44:08;100560.13;;;-0.26;82.57
50310;BME280;36207;51.850;21.698;2023-02-16T04:46:34;100561.26;;;-0.24;82.57
50310;BME280;36207;51.850;21.698;2023-02-16T04:49:00;100558.60;;;-0.24;82.78
50310;BME280;36207;51.850;21.698;2023-02-16T04:51:26;100557.96;;;-0.22;82.79
50310;BME280;36207;51.850;21.698;2023-02-16T04:53:52;100557.62;;;-0.19;82.83
50310;BME280;36207;51.850;21.698;2023-02-16T04:56:18;100554.66;;;-0.14;82.81
50310;BME280;36207;51.850;21.698;2023-02-16T04:58:44;100554.27;;;-0.10;82.78
50310;BME280;36207;51.850;21.698;2023-02-16T05:01:18;100549.72;;;-0.08;82.74
50310;BME280;36207;51.850;21.698;2023-02-16T05:03:44;100547.59;;;-0.08;82.92
50310;BME280;36207;51.850;21.698;2023-02-16T05:06:10;100550.77;;;-0.11;82.83
50310;BME280;36207;51.850;21.698;2023-02-16T05:08:35;100547.63;;;-0.13;82.82
50310;BME280;36207;51.850;21.698;2023-02-16T05:11:01;100548.95;;;-0.12;82.89
50310;BME280;36207;51.850;21.698;2023-02-16T05:13:46;100543.23;;;-0.10;82.87
50310;BME280;36207;51.850;21.698;2023-02-16T05:16:31;100541.88;;;-0.11;82.74
50310;BME280;36207;51.850;21.698;2023-02-16T05:18:57;100542.11;;;-0.09;82.81
50310;BME280;36207;51.850;21.698;2023-02-16T05:21:27;100542.55;;;-0.08;82.73
50310;BME280;36207;51.850;21.698;2023-02-16T05:24:03;100543.92;;;-0.02;82.80
50310;BME280;36207;51.850;21.698;2023-02-16T05:26:31;100544.70;;;0.05;82.87
50310;BME280;36207;51.850;21.698;2023-02-16T05:28:57;100548.27;;;0.10;82.86
50310;BME280;36207;51.850;21.698;2023-02-16T05:31:24;100558.48;;;0.12;82.74
50310;BME280;36207;51.850;21.698;2023-02-16T05:33:50;100561.46;;;0.17;82.95
50310;BME280;36207;51.850;21.698;2023-02-16T05:36:16;100566.01;;;0.19;82.86
50310;BME280;36207;51.850;21.698;2023-02-16T05:38:43;100561.98;;;0.22;82.74
50310;BME280;36207;51.850;21.698;2023-02-16T05:41:09;100556.61;;;0.24;82.65
50310;BME280;36207;51.850;21.698;2023-02-16T05:43:35;100556.02;;;0.28;82.73
50310;BME280;36207;51.850;21.698;2023-02-16T05:46:08;100555.96;;;0.34;82.90
50310;BME280;36207;51.850;21.698;2023-02-16T05:48:34;100552.09;;;0.37;82.74
50310;BME280;36207;51.850;21.698;2023-02-16T05:51:00;100547.40;;;0.36;82.73
50310;BME280;36207;51.850;21.698;2023-02-16T05:53:26;100547.95;;;0.33;82.52
50310;BME280;36207;51.850;21.698;2023-02-16T05:55:52;100541.44;;;0.28;82.51
50310;BME280;36207;51.850;21.698;2023-02-16T05:58:18;100551.69;;;0.30;82.54
50310;BME280;36207;51.850;21.698;2023-02-16T06:00:44;100551.70;;;0.32;82.83
50310;BME280;36207;51.850;21.698;2023-02-16T06:03:09;100545.80;;;0.36;82.81
50310;BME280;36207;51.850;21.698;2023-02-16T06:05:35;100547.35;;;0.39;82.74
50310;BME280;36207;51.850;21.698;2023-02-16T06:08:02;100546.38;;;0.41;82.69
50310;BME280;36207;51.850;21.698;2023-02-16T06:10:28;100548.95;;;0.42;82.73
50310;BME280;36207;51.850;21.698;2023-02-16T06:12:54;100547.25;;;0.44;82.79
50310;BME280;36207;51.850;21.698;2023-02-16T06:15:19;100545.26;;;0.45;82.64
50310;BME280;36207;51.850;21.698;2023-02-16T06:17:45;100548.99;;;0.47;82.68
50310;BME280;36207;51.850;21.698;2023-02-16T06:20:11;100546.80;;;0.48;82.63
50310;BME280;36207;51.850;21.698;2023-02-16T06:22:37;100541.89;;;0.53;82.71
50310;BME280;36207;51.850;21.698;2023-02-16T06:25:03;100538.73;;;0.56;82.73
50310;BME280;36207;51.850;21.698;2023-02-16T06:27:29;100544.60;;;0.55;82.66
50310;BME280;36207;51.850;21.698;2023-02-16T06:29:55;100540.45;;;0.56;82.75
50310;BME280;36207;51.850;21.698;2023-02-16T06:32:21;100543.21;;;0.60;82.88
50310;BME280;36207;51.850;21.698;2023-02-16T06:34:47;100540.55;;;0.68;82.95
50310;BME280;36207;51.850;21.698;2023-02-16T06:37:13;100544.70;;;0.77;83.08
50310;BME280;36207;51.850;21.698;2023-02-16T06:39:39;100547.73;;;0.86;83.07
50310;BME280;36207;51.850;21.698;2023-02-16T06:42:05;100540.94;;;0.96;83.21
50310;BME280;36207;51.850;21.698;2023-02-16T06:44:31;100543.54;;;1.07;83.20
50310;BME280;36207;51.850;21.698;2023-02-16T06:46:56;100542.91;;;1.18;83.20
50310;BME280;36207;51.850;21.698;2023-02-16T06:49:22;100545.38;;;1.31;83.29
50310;BME280;36207;51.850;21.698;2023-02-16T06:51:49;100546.42;;;1.44;83.25
50310;BME280;36207;51.850;21.698;2023-02-16T06:54:16;100536.16;;;1.52;83.09
50310;BME280;36207;51.850;21.698;2023-02-16T06:56:42;100532.17;;;1.57;82.82
50310;BME280;36207;51.850;21.698;2023-02-16T06:59:10;100531.79;;;1.57;82.65
50310;BME280;36207;51.850;21.698;2023-02-16T07:01:37;100529.30;;;1.60;82.63
50310;BME280;36207;51.850;21.698;2023-02-16T07:04:03;100527.34;;;1.63;82.46
50310;BME280;36207;51.850;21.698;2023-02-16T07:06:29;100518.25;;;1.70;82.64
50310;BME280;36207;51.850;21.698;2023-02-16T07:08:55;100516.40;;;1.86;82.80
50310;BME280;36207;51.850;21.698;2023-02-16T07:11:21;100524.58;;;2.04;82.78
50310;BME280;36207;51.850;21.698;2023-02-16T07:13:47;100527.10;;;2.19;82.20
50310;BME280;36207;51.850;21.698;2023-02-16T07:16:13;100525.70;;;2.32;82.33
50310;BME280;36207;51.850;21.698;2023-02-16T07:18:40;100524.51;;;2.36;82.06
50310;BME280;36207;51.850;21.698;2023-02-16T07:21:06;100523.31;;;2.42;82.25
50310;BME280;36207;51.850;21.698;2023-02-16T07:23:33;100516.81;;;2.52;81.99
50310;BME280;36207;51.850;21.698;2023-02-16T07:25:59;100519.63;;;2.56;81.56
50310;BME280;36207;51.850;21.698;2023-02-16T07:28:25;100518.85;;;2.62;81.78
50310;BME280;36207;51.850;21.698;2023-02-16T07:30:50;100517.42;;;2.72;82.04
50310;BME280;36207;51.850;21.698;2023-02-16T07:33:18;100507.21;;;2.83;81.73
50310;BME280;36207;51.850;21.698;2023-02-16T07:35:45;100497.29;;;2.98;81.97
50310;BME280;36207;51.850;21.698;2023-02-16T07:38:11;100493.77;;;3.09;81.71
50310;BME280;36207;51.850;21.698;2023-02-16T07:40:37;100488.98;;;3.19;81.35
50310;BME280;36207;51.850;21.698;2023-02-16T07:43:04;100491.04;;;3.36;81.05
50310;BME280;36207;51.850;21.698;2023-02-16T07:45:31;100492.55;;;3.56;81.61
50310;BME280;36207;51.850;21.698;2023-02-16T07:47:58;100497.27;;;3.81;81.31
50310;BME280;36207;51.850;21.698;2023-02-16T07:50:24;100495.13;;;4.03;81.57
50310;BME280;36207;51.850;21.698;2023-02-16T07:52:51;100492.00;;;4.24;81.03
50310;BME280;36207;51.850;21.698;2023-02-16T07:55:17;100490.37;;;4.43;80.89
50310;BME280;36207;51.850;21.698;2023-02-16T07:57:43;100494.89;;;4.61;80.31
50310;BME280;36207;51.850;21.698;2023-02-16T08:00:09;100499.25;;;4.77;79.58
50310;BME280;36207;51.850;21.698;2023-02-16T08:02:35;100497.06;;;4.83;78.53
50310;BME280;36207;51.850;21.698;2023-02-16T08:05:01;100498.51;;;4.89;78.45
50310;BME280;36207;51.850;21.698;2023-02-16T08:07:27;100501.00;;;4.95;77.79
50310;BME280;36207;51.850;21.698;2023-02-16T08:09:53;100502.95;;;4.95;76.08
50310;BME280;36207;51.850;21.698;2023-02-16T08:12:19;100500.20;;;4.86;74.94
50310;BME280;36207;51.850;21.698;2023-02-16T08:14:46;100496.94;;;4.77;74.60
50310;BME280;36207;51.850;21.698;2023-02-16T08:17:12;100491.40;;;4.73;75.84
50310;BME280;36207;51.850;21.698;2023-02-16T08:19:38;100490.48;;;4.82;76.81
50310;BME280;36207;51.850;21.698;2023-02-16T08:22:06;100492.88;;;4.91;76.87
50310;BME280;36207;51.850;21.698;2023-02-16T08:24:32;100496.34;;;4.98;76.22
50310;BME280;36207;51.850;21.698;2023-02-16T08:26:59;100498.30;;;5.00;75.50
50310;BME280;36207;51.850;21.698;2023-02-16T08:29:25;100494.65;;;5.00;75.41
50310;BME280;36207;51.850;21.698;2023-02-16T08:31:51;100492.03;;;4.95;75.06
50310;BME280;36207;51.850;21.698;2023-02-16T08:34:20;100489.30;;;4.96;76.38
50310;BME280;36207;51.850;21.698;2023-02-16T08:36:51;100485.52;;;5.05;76.08
50310;BME280;36207;51.850;21.698;2023-02-16T08:39:19;100483.00;;;5.11;76.06
50310;BME280;36207;51.850;21.698;2023-02-16T08:41:47;100479.84;;;5.13;75.56
50310;BME280;36207;51.850;21.698;2023-02-16T08:44:16;100478.79;;;5.13;75.24
50310;BME280;36207;51.850;21.698;2023-02-16T08:46:44;100476.73;;;5.12;73.97
50310;BME280;36207;51.850;21.698;2023-02-16T08:49:11;100473.23;;;5.04;73.45
50310;BME280;36207;51.850;21.698;2023-02-16T08:51:41;100475.39;;;4.98;72.89
50310;BME280;36207;51.850;21.698;2023-02-16T08:54:07;100474.80;;;4.98;74.19
50310;BME280;36207;51.850;21.698;2023-02-16T08:56:34;100471.37;;;5.09;74.55
50310;BME280;36207;51.850;21.698;2023-02-16T08:59:00;100467.86;;;5.23;75.27
50310;BME280;36207;51.850;21.698;2023-02-16T09:01:27;100467.91;;;5.41;74.19
50310;BME280;36207;51.850;21.698;2023-02-16T09:03:54;100461.59;;;5.51;74.65
50310;BME280;36207;51.850;21.698;2023-02-16T09:06:21;100463.18;;;5.63;74.28
50310;BME280;36207;51.850;21.698;2023-02-16T09:08:51;100466.83;;;5.71;74.21
50310;BME280;36207;51.850;21.698;2023-02-16T09:11:18;100466.14;;;5.81;73.32
50310;BME280;36207;51.850;21.698;2023-02-16T09:13:46;100467.40;;;5.80;71.35
50310;BME280;36207;51.850;21.698;2023-02-16T09:16:20;100474.55;;;5.73;71.54
50310;BME280;36207;51.850;21.698;2023-02-16T09:18:52;100473.69;;;5.73;71.54
50310;BME280;36207;51.850;21.698;2023-02-16T09:21:21;100472.58;;;5.76;71.64
50310;BME280;36207;51.850;21.698;2023-02-16T09:23:49;100469.58;;;5.76;71.49
50310;BME280;36207;51.850;21.698;2023-02-16T09:26:17;100467.61;;;5.72;71.65
50310;BME280;36207;51.850;21.698;2023-02-16T09:28:44;100467.31;;;5.68;71.35
50310;BME280;36207;51.850;21.698;2023-02-16T09:31:13;100466.15;;;5.59;70.63
50310;BME280;36207;51.850;21.698;2023-02-16T09:33:43;100467.24;;;5.47;71.19
50310;BME280;36207;51.850;21.698;2023-02-16T09:36:11;100468.42;;;5.49;72.29
50310;BME280;36207;51.850;21.698;2023-02-16T09:38:37;100471.73;;;5.55;71.98
50310;BME280;36207;51.850;21.698;2023-02-16T09:46:55;100458.89;;;5.63;71.74
50310;BME280;36207;51.850;21.698;2023-02-16T09:49:30;100455.70;;;5.63;70.89
50310;BME280;36207;51.850;21.698;2023-02-16T09:52:08;100460.70;;;5.63;71.60
50310;BME280;36207;51.850;21.698;2023-02-16T09:54:53;100455.89;;;5.65;71.30
50310;BME280;36207;51.850;21.698;2023-02-16T10:00:46;100456.73;;;5.50;70.48
50310;BME280;36207;51.850;21.698;2023-02-16T10:08:57;100457.38;;;5.16;70.78
50310;BME280;36207;51.850;21.698;2023-02-16T10:11:32;100457.41;;;5.10;71.69
50310;BME280;36207;51.850;21.698;2023-02-16T10:17:43;100444.36;;;5.09;71.64
50310;BME280;36207;51.850;21.698;2023-02-16T10:20:30;100440.44;;;5.18;71.85
50310;BME280;36207;51.850;21.698;2023-02-16T10:25:52;100438.40;;;5.27;70.93
50310;BME280;36207;51.850;21.698;2023-02-16T10:28:31;100440.02;;;5.21;70.50
50310;BME280;36207;51.850;21.698;2023-02-16T10:31:03;100436.93;;;5.18;70.86
50310;BME280;36207;51.850;21.698;2023-02-16T10:33:41;100430.85;;;5.17;71.13
50310;BME280;36207;51.850;21.698;2023-02-16T10:36:47;100424.55;;;5.18;71.52
50310;BME280;36207;51.850;21.698;2023-02-16T10:41:49;100424.09;;;5.25;71.59
50310;BME280;36207;51.850;21.698;2023-02-16T10:44:24;100425.48;;;5.31;71.56
50310;BME280;36207;51.850;21.698;2023-02-16T10:46:59;100424.97;;;5.37;71.35
50310;BME280;36207;51.850;21.698;2023-02-16T10:49:28;100428.59;;;5.43;71.03
50310;BME280;36207;51.850;21.698;2023-02-16T10:51:55;100429.52;;;5.44;71.02
50310;BME280;36207;51.850;21.698;2023-02-16T10:54:28;100429.91;;;5.49;71.53
50310;BME280;36207;51.850;21.698;2023-02-16T10:56:56;100426.39;;;5.57;70.99
50310;BME280;36207;51.850;21.698;2023-02-16T10:59:32;100421.96;;;5.63;71.07
50310;BME280;36207;51.850;21.698;2023-02-16T11:02:00;100422.86;;;5.69;70.86
50310;BME280;36207;51.850;21.698;2023-02-16T11:04:34;100410.60;;;5.72;70.18
50310;BME280;36207;51.850;21.698;2023-02-16T11:09:34;100412.16;;;5.78;70.09
50310;BME280;36207;51.850;21.698;2023-02-16T11:12:12;100407.35;;;5.80;70.23
50310;BME280;36207;51.850;21.698;2023-02-16T11:14:46;100404.23;;;5.83;70.42
50310;BME280;36207;51.850;21.698;2023-02-16T11:17:14;100400.89;;;5.89;70.52
50310;BME280;36207;51.850;21.698;2023-02-16T11:20:00;100402.31;;;5.93;70.33
50310;BME280;36207;51.850;21.698;2023-02-16T11:22:35;100393.04;;;5.95;69.63
50310;BME280;36207;51.850;21.698;2023-02-16T11:25:25;100390.69;;;5.95;69.78
50310;BME280;36207;51.850;21.698;2023-02-16T11:27:54;100384.77;;;5.94;69.32
50310;BME280;36207;51.850;21.698;2023-02-16T11:30:39;100382.59;;;5.97;70.02
50310;BME280;36207;51.850;21.698;2023-02-16T11:33:21;100386.58;;;6.01;69.60
50310;BME280;36207;51.850;21.698;2023-02-16T11:35:48;100389.39;;;6.09;70.11
50310;BME280;36207;51.850;21.698;2023-02-16T11:38:35;100386.59;;;6.16;69.71
50310;BME280;36207;51.850;21.698;2023-02-16T11:41:05;100383.15;;;6.25;69.40
50310;BME280;36207;51.850;21.698;2023-02-16T11:43:35;100378.64;;;6.32;68.89
50310;BME280;36207;51.850;21.698;2023-02-16T11:46:15;100378.27;;;6.40;69.77
50310;BME280;36207;51.850;21.698;2023-02-16T11:48:43;100370.33;;;6.49;69.54
50310;BME280;36207;51.850;21.698;2023-02-16T11:51:10;100369.20;;;6.51;68.87
50310;BME280;36207;51.850;21.698;2023-02-16T11:53:38;100363.34;;;6.54;68.70
50310;BME280;36207;51.850;21.698;2023-02-16T11:56:24;100357.29;;;6.58;69.22
50310;BME280;36207;51.850;21.698;2023-02-16T12:12:34;100346.19;;;6.81;67.82
50310;BME280;36207;51.850;21.698;2023-02-16T12:20:23;100341.30;;;6.75;67.85
50310;BME280;36207;51.850;21.698;2023-02-16T12:29:05;100335.37;;;6.73;68.01
50310;BME280;36207;51.850;21.698;2023-02-16T12:34:27;100329.40;;;6.74;67.83
50310;BME280;36207;51.850;21.698;2023-02-16T12:39:45;100330.25;;;6.80;68.21
50310;BME280;36207;51.850;21.698;2023-02-16T12:42:24;100334.85;;;6.82;68.40
50310;BME280;36207;51.850;21.698;2023-02-16T12:45:01;100334.97;;;6.86;68.36
50310;BME280;36207;51.850;21.698;2023-02-16T12:47:34;100332.86;;;6.89;68.13
50310;BME280;36207;51.850;21.698;2023-02-16T12:50:21;100329.34;;;6.93;67.73
50310;BME280;36207;51.850;21.698;2023-02-16T12:52:55;100321.95;;;6.98;67.76
50310;BME280;36207;51.850;21.698;2023-02-16T12:55:28;100323.42;;;6.99;67.31
50310;BME280;36207;51.850;21.698;2023-02-16T13:03:22;100323.29;;;7.06;68.07
50310;BME280;36207;51.850;21.698;2023-02-16T13:06:17;100323.41;;;7.08;68.87
50310;BME280;36207;51.850;21.698;2023-02-16T13:11:24;100316.71;;;7.11;67.68
50310;BME280;36207;51.850;21.698;2023-02-16T13:13:58;100315.30;;;7.13;67.68
50310;BME280;36207;51.850;21.698;2023-02-16T13:19:13;100316.33;;;7.16;67.37
50310;BME280;36207;51.850;21.698;2023-02-16T13:43:57;100305.17;;;7.10;66.94
50310;BME280;36207;51.850;21.698;2023-02-16T13:46:46;100305.79;;;7.06;67.27
50310;BME280;36207;51.850;21.698;2023-02-16T13:51:52;100301.21;;;7.00;67.57
50310;BME280;36207;51.850;21.698;2023-02-16T13:54:35;100302.81;;;7.00;67.69
50310;BME280;36207;51.850;21.698;2023-02-16T13:57:11;100300.13;;;6.98;67.68
50310;BME280;36207;51.850;21.698;2023-02-16T14:02:11;100308.64;;;6.97;67.71
50310;BME280;36207;51.850;21.698;2023-02-16T14:17:23;100300.58;;;6.85;67.97
50310;BME280;36207;51.850;21.698;2023-02-16T14:25:02;100292.17;;;6.70;68.75
50310;BME280;36207;51.850;21.698;2023-02-16T14:27:49;100291.11;;;6.67;68.51
50310;BME280;36207;51.850;21.698;2023-02-16T14:30:35;100287.80;;;6.63;68.25
50310;BME280;36207;51.850;21.698;2023-02-16T14:35:45;100290.78;;;6.58;69.07
50310;BME280;36207;51.850;21.698;2023-02-16T14:38:25;100289.23;;;6.55;69.36
50310;BME280;36207;51.850;21.698;2023-02-16T14:43:31;100290.63;;;6.50;69.42
50310;BME280;36207;51.850;21.698;2023-02-16T14:57:03;100283.11;;;6.43;69.78
50310;BME280;36207;51.850;21.698;2023-02-16T15:02:33;100283.54;;;6.35;69.82
50310;BME280;36207;51.850;21.698;2023-02-16T15:05:17;100285.71;;;6.29;69.88
50310;BME280;36207;51.850;21.698;2023-02-16T15:07:46;100285.39;;;6.23;70.08
50310;BME280;36207;51.850;21.698;2023-02-16T15:10:18;100285.52;;;6.18;70.16
50310;BME280;36207;51.850;21.698;2023-02-16T15:12:47;100285.95;;;6.13;69.94
50310;BME280;36207;51.850;21.698;2023-02-16T15:15:19;100282.36;;;6.10;70.25
50310;BME280;36207;51.850;21.698;2023-02-16T15:17:47;100284.13;;;6.08;70.40
50310;BME280;36207;51.850;21.698;2023-02-16T15:20:25;100280.88;;;6.05;70.44
50310;BME280;36207;51.850;21.698;2023-02-16T15:22:57;100278.45;;;6.01;70.43
50310;BME280;36207;51.850;21.698;2023-02-16T15:25:36;100280.46;;;5.96;70.48
50310;BME280;36207;51.850;21.698;2023-02-16T15:28:18;100280.45;;;5.91;70.54
50310;BME280;36207;51.850;21.698;2023-02-16T15:30:57;100281.33;;;5.85;70.68
50310;BME280;36207;51.850;21.698;2023-02-16T15:36:08;100279.02;;;5.77;70.79
50310;BME280;36207;51.850;21.698;2023-02-16T15:38:52;100278.04;;;5.76;70.82
50310;BME280;36207;51.850;21.698;2023-02-16T15:41:31;100281.64;;;5.74;71.04
50310;BME280;36207;51.850;21.698;2023-02-16T15:43:59;100280.30;;;5.69;70.92
50310;BME280;36207;51.850;21.698;2023-02-16T15:46:32;100277.89;;;5.65;70.90
50310;BME280;36207;51.850;21.698;2023-02-16T15:49:27;100272.12;;;5.60;70.97
50310;BME280;36207;51.850;21.698;2023-02-16T15:51:56;100273.15;;;5.54;70.87
50310;BME280;36207;51.850;21.698;2023-02-16T15:54:28;100275.58;;;5.49;70.93
50310;BME280;36207;51.850;21.698;2023-02-16T15:56:57;100276.05;;;5.44;70.94